createdAt,value
2022-10-14T00:02:01.432Z,10.90
2022-10-14T00:04:29.853Z,10.90
2022-10-14T00:06:57.176Z,10.90
2022-10-14T00:09:24.452Z,10.90
2022-10-14T00:11:51.162Z,10.80
2022-10-14T00:14:21.179Z,10.80
2022-10-14T00:16:51.839Z,10.80
2022-10-14T00:19:18.660Z,10.70
2022-10-14T00:21:46.220Z,10.70
2022-10-14T00:24:14.114Z,10.60
2022-10-14T00:26:41.287Z,10.70
2022-10-14T00:29:13.294Z,10.70
2022-10-14T00:31:40.294Z,10.70
2022-10-14T00:34:07.243Z,10.70
2022-10-14T00:36:34.055Z,10.70
2022-10-14T00:39:00.799Z,10.60
2022-10-14T00:41:30.681Z,10.60
2022-10-14T00:44:03.230Z,10.60
2022-10-14T00:46:33.125Z,10.60
2022-10-14T00:49:04.682Z,10.50
2022-10-14T00:51:31.605Z,10.60
2022-10-14T00:53:58.370Z,10.60
2022-10-14T00:56:28.764Z,10.50
2022-10-14T00:58:56.472Z,10.50
2022-10-14T01:01:23.460Z,10.50
2022-10-14T01:03:50.597Z,10.50
2022-10-14T01:07:03.303Z,10.50
2022-10-14T01:09:48.201Z,10.40
2022-10-14T01:12:52.035Z,10.50
2022-10-14T01:15:18.706Z,10.40
2022-10-14T01:17:51.270Z,10.40
2022-10-14T01:20:43.230Z,10.40
2022-10-14T01:23:31.809Z,10.40
2022-10-14T01:26:13.554Z,10.40
2022-10-14T01:29:11.412Z,10.40
2022-10-14T01:31:45.513Z,10.40
2022-10-14T01:34:19.420Z,10.40
2022-10-14T01:36:52.388Z,10.40
2022-10-14T01:39:26.436Z,10.40
2022-10-14T01:42:00.394Z,10.40
2022-10-14T01:44:28.090Z,10.50
2022-10-14T01:46:55.601Z,10.40
2022-10-14T01:49:43.906Z,10.40
2022-10-14T01:52:16.269Z,10.40
2022-10-14T01:54:47.341Z,10.50
2022-10-14T01:57:19.441Z,10.40
2022-10-14T01:59:47.855Z,10.50
2022-10-14T02:02:15.458Z,10.50
2022-10-14T02:04:42.216Z,10.50
2022-10-14T02:07:18.110Z,10.50
2022-10-14T02:10:03.295Z,10.50
2022-10-14T02:12:38.618Z,10.40
2022-10-14T02:15:25.864Z,10.40
2022-10-14T02:18:00.659Z,10.40
2022-10-14T02:20:35.783Z,10.40
2022-10-14T02:23:10.945Z,10.40
2022-10-14T02:25:41.244Z,10.40
2022-10-14T02:28:09.886Z,10.40
2022-10-14T02:30:43.862Z,10.40
2022-10-14T02:33:11.857Z,10.40
2022-10-14T02:35:40.349Z,10.40
2022-10-14T02:38:07.985Z,10.40
2022-10-14T02:40:45.358Z,10.40
2022-10-14T02:43:12.799Z,10.40
2022-10-14T02:45:41.540Z,10.40
2022-10-14T02:48:09.114Z,10.40
2022-10-14T02:50:35.923Z,10.40
2022-10-14T02:53:02.645Z,10.40
2022-10-14T02:55:29.505Z,10.40
2022-10-14T02:57:56.318Z,10.50
2022-10-14T03:00:23.085Z,10.50
2022-10-14T03:02:49.776Z,10.50
2022-10-14T03:05:16.584Z,10.60
2022-10-14T03:07:43.290Z,10.60
2022-10-14T03:10:09.981Z,10.60
2022-10-14T03:12:36.670Z,10.60
2022-10-14T03:15:03.628Z,10.60
2022-10-14T03:17:30.788Z,10.70
2022-10-14T03:19:59.219Z,10.60
2022-10-14T03:22:26.410Z,10.60
2022-10-14T03:24:53.425Z,10.70
2022-10-14T03:27:20.150Z,10.70
2022-10-14T03:29:47.106Z,10.80
2022-10-14T03:32:13.853Z,10.70
2022-10-14T03:34:40.581Z,10.80
2022-10-14T03:37:07.784Z,10.60
2022-10-14T03:39:34.557Z,10.70
2022-10-14T03:42:01.659Z,10.70
2022-10-14T03:44:28.648Z,10.70
2022-10-14T03:46:55.377Z,10.70
2022-10-14T03:49:22.108Z,10.80
2022-10-14T03:51:48.817Z,10.80
2022-10-14T03:54:15.653Z,10.80
2022-10-14T03:56:42.405Z,10.80
2022-10-14T03:59:09.181Z,10.80
2022-10-14T04:01:36.002Z,10.80
2022-10-14T04:04:02.806Z,10.80
2022-10-14T04:06:31.118Z,10.80
2022-10-14T04:08:57.896Z,10.80
2022-10-14T04:11:24.853Z,10.80
2022-10-14T04:13:51.641Z,10.80
2022-10-14T04:16:18.354Z,10.80
2022-10-14T04:18:45.090Z,10.80
2022-10-14T04:21:12.607Z,10.80
2022-10-14T04:23:39.329Z,10.80
2022-10-14T04:26:07.938Z,10.70
2022-10-14T04:28:35.341Z,10.80
2022-10-14T04:31:02.788Z,10.70
2022-10-14T04:33:29.674Z,10.70
2022-10-14T04:36:00.739Z,10.70
2022-10-14T04:38:28.245Z,10.70
2022-10-14T04:40:55.641Z,10.70
2022-10-14T04:43:23.161Z,10.60
2022-10-14T04:45:50.526Z,10.60
2022-10-14T04:48:18.148Z,10.60
2022-10-14T04:50:44.919Z,10.60
2022-10-14T04:53:13.721Z,10.60
2022-10-14T04:55:41.206Z,10.60
2022-10-14T04:58:07.898Z,10.60
2022-10-14T05:00:34.724Z,10.60
2022-10-14T05:03:01.406Z,10.60
2022-10-14T05:05:28.399Z,10.60
2022-10-14T05:07:55.145Z,10.60
2022-10-14T05:10:22.503Z,10.60
2022-10-14T05:12:49.291Z,10.60
2022-10-14T05:15:16.727Z,10.60
2022-10-14T05:17:44.704Z,10.70
2022-10-14T05:20:12.660Z,10.70
2022-10-14T05:22:39.881Z,10.70
2022-10-14T05:25:07.022Z,10.80
2022-10-14T05:27:33.775Z,10.80
2022-10-14T05:30:00.611Z,10.80
2022-10-14T05:32:27.631Z,10.80
2022-10-14T05:34:55.213Z,10.90
2022-10-14T05:37:21.929Z,11.00
2022-10-14T05:39:48.659Z,11.10
2022-10-14T05:42:15.378Z,11.10
2022-10-14T05:44:42.121Z,11.20
2022-10-14T05:47:10.286Z,11.20
2022-10-14T05:49:37.025Z,11.20
2022-10-14T05:52:03.987Z,11.20
2022-10-14T05:54:30.742Z,11.30
2022-10-14T05:56:57.663Z,11.30
2022-10-14T05:59:24.458Z,11.20
2022-10-14T06:01:51.236Z,11.30
2022-10-14T06:04:19.525Z,11.30
2022-10-14T06:06:46.318Z,11.30
2022-10-14T06:09:13.308Z,11.30
2022-10-14T06:11:40.064Z,11.40
2022-10-14T06:14:07.163Z,11.40
2022-10-14T06:16:34.360Z,11.40
2022-10-14T06:19:01.267Z,11.40
2022-10-14T06:21:28.035Z,11.40
2022-10-14T06:23:54.943Z,11.40
2022-10-14T06:26:21.724Z,11.40
2022-10-14T06:28:48.531Z,11.40
2022-10-14T06:31:15.459Z,11.50
2022-10-14T06:33:44.034Z,11.50
2022-10-14T06:36:11.812Z,11.60
2022-10-14T06:38:38.642Z,11.60
2022-10-14T06:41:05.449Z,11.60
2022-10-14T06:43:32.322Z,11.70
2022-10-14T06:45:59.496Z,11.80
2022-10-14T06:48:26.237Z,11.80
2022-10-14T06:50:53.126Z,11.80
2022-10-14T06:53:20.271Z,11.80
2022-10-14T06:55:47.042Z,11.90
2022-10-14T06:58:13.780Z,11.90
2022-10-14T07:00:43.216Z,12.00
2022-10-14T07:03:12.415Z,12.00
2022-10-14T07:05:39.148Z,12.00
2022-10-14T07:08:07.299Z,12.00
2022-10-14T07:10:35.859Z,12.10
2022-10-14T07:13:02.610Z,12.10
2022-10-14T07:15:33.742Z,12.20
2022-10-14T07:18:04.009Z,12.20
2022-10-14T07:20:31.091Z,12.20
2022-10-14T07:22:58.007Z,12.10
2022-10-14T07:25:24.831Z,12.20
2022-10-14T07:27:53.322Z,12.30
2022-10-14T07:30:20.402Z,12.30
2022-10-14T07:32:47.325Z,12.30
2022-10-14T07:35:14.129Z,12.30
2022-10-14T07:37:40.890Z,12.30
2022-10-14T07:40:08.379Z,12.30
2022-10-14T07:42:35.156Z,12.30
2022-10-14T07:45:02.614Z,12.30
2022-10-14T07:47:29.931Z,12.30
2022-10-14T07:49:56.729Z,12.30
2022-10-14T07:52:23.467Z,12.20
2022-10-14T07:54:50.256Z,12.30
2022-10-14T07:57:17.100Z,12.20
2022-10-14T07:59:43.920Z,12.30
2022-10-14T08:02:12.010Z,12.30
2022-10-14T08:04:39.343Z,12.40
2022-10-14T08:07:06.406Z,12.40
2022-10-14T08:09:35.867Z,12.50
2022-10-14T08:12:02.708Z,12.60
2022-10-14T08:14:29.494Z,12.60
2022-10-14T08:16:56.286Z,12.70
2022-10-14T08:19:23.104Z,12.80
2022-10-14T08:21:49.869Z,12.80
2022-10-14T08:24:16.605Z,12.80
2022-10-14T08:26:57.975Z,12.90
2022-10-14T08:29:25.622Z,12.90
2022-10-14T08:31:55.140Z,12.90
2022-10-14T08:34:24.055Z,13.00
2022-10-14T08:36:51.606Z,13.10
2022-10-14T08:39:19.274Z,13.10
2022-10-14T08:42:16.152Z,13.20
2022-10-14T08:44:51.465Z,13.30
2022-10-14T08:47:24.126Z,13.30
2022-10-14T08:50:01.934Z,13.40
2022-10-14T08:53:03.806Z,13.60
2022-10-14T08:55:33.865Z,13.70
2022-10-14T08:58:10.466Z,13.80
2022-10-14T09:00:43.353Z,13.90
2022-10-14T09:03:23.563Z,13.90
2022-10-14T09:05:58.618Z,14.00
2022-10-14T09:08:32.359Z,14.10
2022-10-14T09:10:59.965Z,14.10
2022-10-14T09:13:35.553Z,14.20
2022-10-14T09:16:22.863Z,14.20
2022-10-14T09:18:56.837Z,14.20
2022-10-14T09:21:34.255Z,14.40
2022-10-14T09:24:20.636Z,14.40
2022-10-14T09:27:17.999Z,14.40
2022-10-14T09:29:55.213Z,14.30
2022-10-14T09:32:44.585Z,14.20
2022-10-14T09:35:22.727Z,14.30
2022-10-14T09:37:49.484Z,14.20
2022-10-14T09:40:36.490Z,14.30
2022-10-14T09:43:24.940Z,14.30
2022-10-14T09:46:02.324Z,14.30
2022-10-14T09:48:48.157Z,14.30
2022-10-14T09:51:29.370Z,14.40
2022-10-14T09:53:58.642Z,14.50
2022-10-14T09:56:41.913Z,14.40
2022-10-14T09:59:22.690Z,14.50
2022-10-14T10:01:54.941Z,14.50
2022-10-14T10:04:47.777Z,14.50
2022-10-14T10:07:27.083Z,14.60
2022-10-14T10:09:55.974Z,14.70
2022-10-14T10:12:34.074Z,14.70
2022-10-14T10:15:04.366Z,14.70
2022-10-14T10:17:35.503Z,14.80
2022-10-14T10:20:08.275Z,15.00
2022-10-14T10:22:38.811Z,15.20
2022-10-14T10:25:08.333Z,15.30
2022-10-14T10:27:37.950Z,15.40
2022-10-14T10:30:27.271Z,15.40
2022-10-14T10:33:27.971Z,15.30
2022-10-14T10:36:10.104Z,15.30
2022-10-14T10:38:55.399Z,15.10
2022-10-14T10:41:48.450Z,15.10
2022-10-14T10:44:47.842Z,15.30
2022-10-14T10:47:41.712Z,15.60
2022-10-14T10:50:27.266Z,15.50
2022-10-14T10:53:22.847Z,15.40
2022-10-14T10:56:33.468Z,15.50
2022-10-14T10:59:35.278Z,15.40
2022-10-14T11:02:33.239Z,15.60
2022-10-14T11:05:00.800Z,15.50
2022-10-14T11:07:56.804Z,15.60
2022-10-14T11:10:53.948Z,15.80
2022-10-14T11:13:37.966Z,15.80
2022-10-14T11:16:27.140Z,15.70
2022-10-14T11:19:24.100Z,15.60
2022-10-14T11:22:19.301Z,15.60
2022-10-14T11:25:02.369Z,15.70
2022-10-14T11:27:50.159Z,15.80
2022-10-14T11:30:21.750Z,15.90
2022-10-14T11:33:15.458Z,15.80
2022-10-14T11:36:19.855Z,16.00
2022-10-14T11:39:07.697Z,16.70
2022-10-14T11:41:54.309Z,17.00
2022-10-14T11:44:32.801Z,17.40
2022-10-14T11:47:19.239Z,17.40
2022-10-14T11:50:12.775Z,17.40
2022-10-14T11:52:48.627Z,17.80
2022-10-14T11:55:23.652Z,17.50
2022-10-14T11:57:54.884Z,16.90
2022-10-14T12:03:26.095Z,17.30
2022-10-14T12:06:13.256Z,17.40
2022-10-14T12:08:56.220Z,17.90
2022-10-14T12:11:26.343Z,17.80
2022-10-14T12:14:02.697Z,17.80
2022-10-14T12:16:31.085Z,18.10
2022-10-14T12:18:58.251Z,17.80
2022-10-14T12:21:37.453Z,17.50
2022-10-14T12:24:14.757Z,17.50
2022-10-14T12:26:41.670Z,17.70
2022-10-14T12:29:17.032Z,17.40
2022-10-14T12:31:50.501Z,17.30
2022-10-14T12:34:26.170Z,17.40
2022-10-14T12:36:53.098Z,17.40
2022-10-14T12:39:19.772Z,17.10
2022-10-14T12:41:54.448Z,17.30
2022-10-14T12:44:23.545Z,17.10
2022-10-14T12:46:52.707Z,17.00
2022-10-14T12:49:34.676Z,17.00
2022-10-14T12:52:06.218Z,17.80
2022-10-14T12:54:35.590Z,19.10
2022-10-14T12:57:24.014Z,19.80
2022-10-14T12:59:53.661Z,20.10
2022-10-14T13:02:32.417Z,19.30
2022-10-14T13:05:07.040Z,18.40
2022-10-14T13:08:05.817Z,17.80
2022-10-14T13:10:43.502Z,17.40
2022-10-14T13:13:41.954Z,16.90
2022-10-14T13:16:29.064Z,16.90
2022-10-14T13:19:00.718Z,16.80
2022-10-14T13:21:36.417Z,16.80
2022-10-14T13:24:44.293Z,17.60
2022-10-14T13:27:30.206Z,17.80
2022-10-14T13:30:08.847Z,17.50
2022-10-14T13:33:08.199Z,17.70
2022-10-14T13:36:12.766Z,17.70
2022-10-14T13:38:43.469Z,17.60
2022-10-14T13:41:18.662Z,17.60
2022-10-14T13:43:46.130Z,17.60
2022-10-14T13:46:22.592Z,17.40
2022-10-14T13:48:52.236Z,17.30
2022-10-14T13:51:47.659Z,17.10
2022-10-14T13:54:16.088Z,17.10
2022-10-14T13:56:43.444Z,17.00
2022-10-14T13:59:43.447Z,16.80
2022-10-14T14:02:24.669Z,16.80
2022-10-14T14:04:55.172Z,16.80
2022-10-14T14:10:19.710Z,17.20
2022-10-14T14:12:47.106Z,17.40
2022-10-14T14:15:22.943Z,17.40
2022-10-14T14:17:50.018Z,17.40
2022-10-14T14:20:26.838Z,17.20
2022-10-14T14:22:53.606Z,16.90
2022-10-14T14:25:36.677Z,17.10
2022-10-14T14:28:08.434Z,17.20
2022-10-14T14:30:37.295Z,17.30
2022-10-14T14:33:12.111Z,17.30
2022-10-14T14:35:53.987Z,17.30
2022-10-14T14:38:33.830Z,17.30
2022-10-14T14:41:25.156Z,17.40
2022-10-14T14:44:20.907Z,17.40
2022-10-14T14:46:44.952Z,17.30
2022-10-14T14:49:18.282Z,17.10
2022-10-14T14:51:45.866Z,17.00
2022-10-14T14:54:18.427Z,16.80
2022-10-14T14:57:06.602Z,16.70
2022-10-14T14:59:37.560Z,16.50
2022-10-14T15:02:25.702Z,16.40
2022-10-14T15:05:09.899Z,16.30
2022-10-14T15:07:37.469Z,16.30
2022-10-14T15:10:07.048Z,16.20
2022-10-14T15:12:42.450Z,16.20
2022-10-14T15:15:32.241Z,16.10
2022-10-14T15:18:28.689Z,16.00
2022-10-14T15:21:27.706Z,16.00
2022-10-14T15:23:55.982Z,15.90
2022-10-14T15:26:36.118Z,15.80
2022-10-14T15:29:06.029Z,15.80
2022-10-14T15:31:33.488Z,15.80
2022-10-14T15:34:00.500Z,15.80
2022-10-14T15:36:33.181Z,15.70
2022-10-14T15:39:01.473Z,15.60
2022-10-14T15:41:28.790Z,15.60
2022-10-14T15:43:55.565Z,15.50
2022-10-14T15:46:41.713Z,15.40
2022-10-14T15:49:15.988Z,15.40
2022-10-14T15:51:42.851Z,15.30
2022-10-14T15:54:12.467Z,15.30
2022-10-14T15:56:39.390Z,15.20
2022-10-14T15:59:06.491Z,15.20
2022-10-14T16:01:37.130Z,15.10
2022-10-14T16:04:04.230Z,15.10
2022-10-14T16:06:32.538Z,15.10
2022-10-14T16:08:59.368Z,15.10
2022-10-14T16:11:28.532Z,15.10
2022-10-14T16:13:55.984Z,15.10
2022-10-14T16:16:34.138Z,15.00
2022-10-14T16:19:04.809Z,15.00
2022-10-14T16:21:31.866Z,14.90
2022-10-14T16:23:59.371Z,14.90
2022-10-14T16:26:26.195Z,14.80
2022-10-14T16:28:53.534Z,14.80
2022-10-14T16:31:21.440Z,14.80
2022-10-14T16:33:54.591Z,14.80
2022-10-14T16:36:23.133Z,14.80
2022-10-14T16:38:51.004Z,14.70
2022-10-14T16:41:17.765Z,14.80
2022-10-14T16:43:44.673Z,14.70
2022-10-14T16:46:15.450Z,14.70
2022-10-14T16:48:42.498Z,14.70
2022-10-14T16:51:09.512Z,14.70
2022-10-14T16:53:44.542Z,14.60
2022-10-14T16:56:38.512Z,14.60
2022-10-14T16:59:07.624Z,14.60
2022-10-14T17:01:34.531Z,14.70
2022-10-14T17:04:01.349Z,14.60
2022-10-14T17:06:28.293Z,14.70
2022-10-14T17:08:55.057Z,14.60
2022-10-14T17:11:23.310Z,14.70
2022-10-14T17:13:54.149Z,14.60
2022-10-14T17:16:21.200Z,14.60
2022-10-14T17:21:20.645Z,14.50
2022-10-14T17:23:48.038Z,14.50
2022-10-14T17:26:18.220Z,14.40
2022-10-14T17:28:45.981Z,14.40
2022-10-14T17:31:18.979Z,14.40
2022-10-14T17:33:46.740Z,14.50
2022-10-14T17:36:22.878Z,14.50
2022-10-14T17:38:51.927Z,14.50
2022-10-14T17:41:19.917Z,14.50
2022-10-14T17:43:50.361Z,14.50
2022-10-14T17:46:20.715Z,14.50
2022-10-14T17:48:56.069Z,14.50
2022-10-14T17:51:25.264Z,14.40
2022-10-14T17:53:58.208Z,14.50
2022-10-14T17:56:27.476Z,14.50
2022-10-14T17:58:55.529Z,14.50
2022-10-14T18:01:36.853Z,14.50
2022-10-14T18:04:04.472Z,14.50
2022-10-14T18:06:33.255Z,14.50
2022-10-14T18:09:03.878Z,14.50
2022-10-14T18:11:49.890Z,14.50
2022-10-14T18:14:20.413Z,14.50
2022-10-14T18:16:48.058Z,14.50
2022-10-14T18:19:17.572Z,14.40
2022-10-14T18:21:44.614Z,14.40
2022-10-14T18:24:12.485Z,14.40
2022-10-14T18:26:40.574Z,14.40
2022-10-14T18:29:08.565Z,14.40
2022-10-14T18:31:36.101Z,14.40
2022-10-14T18:34:03.462Z,14.30
2022-10-14T18:36:32.972Z,14.30
2022-10-14T18:39:02.628Z,14.30
2022-10-14T18:41:30.692Z,14.30
2022-10-14T18:43:58.122Z,14.20
2022-10-14T18:46:33.364Z,14.20
2022-10-14T18:49:01.418Z,14.20
2022-10-14T18:51:37.072Z,14.20
2022-10-14T18:54:10.847Z,14.20
2022-10-14T18:56:41.142Z,14.20
2022-10-14T18:59:13.806Z,14.20
2022-10-14T19:01:41.576Z,14.20
2022-10-14T19:04:10.297Z,14.20
2022-10-14T19:06:37.070Z,14.20
2022-10-14T19:09:05.362Z,14.20
2022-10-14T19:11:34.275Z,14.10
2022-10-14T19:14:03.810Z,14.20
2022-10-14T19:16:32.915Z,14.10
2022-10-14T19:19:04.100Z,14.20
2022-10-14T19:21:31.183Z,14.20
2022-10-14T19:24:01.293Z,14.20
2022-10-14T19:26:31.733Z,14.10
2022-10-14T19:29:00.248Z,14.10
2022-10-14T19:31:32.306Z,14.10
2022-10-14T19:34:04.148Z,14.00
2022-10-14T19:36:33.648Z,14.00
2022-10-14T19:39:00.859Z,13.90
2022-10-14T19:41:29.754Z,13.90
2022-10-14T19:43:58.005Z,13.90
2022-10-14T19:46:29.319Z,13.90
2022-10-14T19:48:58.464Z,13.80
2022-10-14T19:51:26.110Z,13.90
2022-10-14T19:53:55.192Z,13.90
2022-10-14T19:56:22.849Z,13.80
2022-10-14T19:58:52.905Z,13.80
2022-10-14T20:01:23.337Z,13.80
2022-10-14T20:03:52.008Z,13.70
2022-10-14T20:06:19.503Z,13.70
2022-10-14T20:08:46.349Z,13.70
2022-10-14T20:11:16.360Z,13.80
2022-10-14T20:13:46.308Z,13.70
2022-10-14T20:16:13.762Z,13.70
2022-10-14T20:18:40.838Z,13.70
2022-10-14T20:21:10.063Z,13.70
2022-10-14T20:23:38.401Z,13.70
2022-10-14T20:26:08.173Z,13.70
2022-10-14T20:28:36.108Z,13.60
2022-10-14T20:31:07.472Z,13.70
2022-10-14T20:33:34.278Z,13.70
2022-10-14T20:36:04.329Z,13.70
2022-10-14T20:38:31.181Z,13.70
2022-10-14T20:41:25.372Z,13.70
2022-10-14T20:43:53.705Z,13.70
2022-10-14T20:46:21.793Z,13.70
2022-10-14T20:48:48.544Z,13.60
2022-10-14T20:51:17.944Z,13.60
2022-10-14T20:53:44.728Z,13.60
2022-10-14T20:56:13.476Z,13.70
2022-10-14T20:58:40.902Z,13.70
2022-10-14T21:01:10.606Z,13.70
2022-10-14T21:03:37.806Z,13.60
2022-10-14T21:06:06.920Z,13.60
2022-10-14T21:08:34.298Z,13.60
2022-10-14T21:11:02.866Z,13.60
2022-10-14T21:13:30.723Z,13.50
2022-10-14T21:15:57.550Z,13.50
2022-10-14T21:18:24.764Z,13.50
2022-10-14T21:23:19.455Z,13.50
2022-10-14T21:25:55.135Z,13.40
2022-10-14T21:28:21.912Z,13.40
2022-10-14T21:30:48.704Z,13.40
2022-10-14T21:33:15.440Z,13.50
2022-10-14T21:35:42.163Z,13.40
2022-10-14T21:38:08.891Z,13.50
2022-10-14T21:40:35.616Z,13.40
2022-10-14T21:43:02.359Z,13.40
2022-10-14T21:45:29.285Z,13.40
2022-10-14T21:47:56.190Z,13.30
2022-10-14T21:50:22.906Z,13.40
2022-10-14T21:52:49.654Z,13.40
2022-10-14T21:55:16.533Z,13.40
2022-10-14T21:57:43.531Z,13.40
2022-10-14T22:00:11.098Z,13.40
2022-10-14T22:02:38.229Z,13.40
2022-10-14T22:05:05.252Z,13.40
2022-10-14T22:07:32.038Z,13.30
2022-10-14T22:09:58.789Z,13.30
2022-10-14T22:12:27.503Z,13.40
2022-10-14T22:14:54.260Z,13.30
2022-10-14T22:17:21.434Z,13.40
2022-10-14T22:19:48.364Z,13.40
2022-10-14T22:22:15.447Z,13.40
2022-10-14T22:24:43.138Z,13.40
2022-10-14T22:27:09.867Z,13.40
2022-10-14T22:29:36.600Z,13.40
2022-10-14T22:32:03.456Z,13.50
2022-10-14T22:34:30.471Z,13.50
2022-10-14T22:36:57.238Z,13.50
2022-10-14T22:39:24.002Z,13.40
2022-10-14T22:41:50.790Z,13.50
2022-10-14T22:44:17.657Z,13.50
2022-10-14T22:46:44.440Z,13.50
2022-10-14T22:49:11.179Z,13.50
2022-10-14T22:51:42.588Z,13.50
2022-10-14T22:54:10.297Z,13.50
2022-10-14T22:56:37.651Z,13.60
2022-10-14T22:59:07.357Z,13.50
2022-10-14T23:01:34.602Z,13.50
2022-10-14T23:04:01.963Z,13.50
2022-10-14T23:06:30.264Z,13.50
2022-10-14T23:08:57.562Z,13.40
2022-10-14T23:11:25.193Z,13.40
2022-10-14T23:13:52.579Z,13.40
2022-10-14T23:16:21.948Z,13.50
2022-10-14T23:18:49.437Z,13.40
2022-10-14T23:21:20.358Z,13.40
2022-10-14T23:23:49.625Z,13.40
2022-10-14T23:26:20.238Z,13.40
2022-10-14T23:28:57.907Z,13.40
2022-10-14T23:31:28.319Z,13.40
2022-10-14T23:34:05.503Z,13.40
2022-10-14T23:36:33.205Z,13.40
2022-10-14T23:39:00.338Z,13.40
2022-10-14T23:41:27.380Z,13.40
2022-10-14T23:43:56.679Z,13.40
2022-10-14T23:46:24.963Z,13.40
2022-10-14T23:49:06.599Z,13.40
2022-10-14T23:51:35.515Z,13.40
2022-10-14T23:54:02.375Z,13.30
2022-10-14T23:56:29.549Z,13.40
2022-10-14T23:58:56.266Z,13.40
